createdAt,value
2023-01-27T00:01:24.132Z,82.50
2023-01-27T00:03:58.083Z,68.50
2023-01-27T00:06:31.990Z,73.90
2023-01-27T00:09:05.745Z,71.00
2023-01-27T00:11:57.464Z,72.40
2023-01-27T00:14:31.936Z,73.80
2023-01-27T00:17:05.863Z,81.30
2023-01-27T00:19:39.681Z,72.90
2023-01-27T00:22:27.789Z,70.70
2023-01-27T00:25:02.169Z,74.70
2023-01-27T00:27:36.698Z,85.80
2023-01-27T00:30:14.232Z,76.20
2023-01-27T00:33:05.989Z,76.40
2023-01-27T00:35:42.306Z,80.90
2023-01-27T00:38:16.212Z,79.50
2023-01-27T00:41:10.029Z,79.60
2023-01-27T00:43:44.021Z,75.30
2023-01-27T00:46:20.672Z,84.00
2023-01-27T00:48:55.490Z,80.70
2023-01-27T00:51:29.384Z,74.20
2023-01-27T00:54:04.208Z,77.20
2023-01-27T00:56:38.272Z,76.50
2023-01-27T00:59:12.197Z,80.40
2023-01-27T01:01:46.061Z,81.50
2023-01-27T01:04:20.038Z,80.40
2023-01-27T01:06:53.816Z,77.00
2023-01-27T01:09:27.685Z,73.80
2023-01-27T01:12:01.570Z,82.50
2023-01-27T01:14:35.361Z,74.10
2023-01-27T01:17:09.477Z,87.30
2023-01-27T01:19:43.294Z,74.20
2023-01-27T01:22:17.503Z,78.10
2023-01-27T01:24:51.605Z,72.30
2023-01-27T01:27:25.726Z,80.90
2023-01-27T01:30:01.188Z,83.00
2023-01-27T01:32:35.050Z,75.70
2023-01-27T01:35:10.817Z,73.80
2023-01-27T01:37:46.722Z,76.70
2023-01-27T01:40:22.234Z,78.00
2023-01-27T01:43:04.023Z,81.80
2023-01-27T01:45:59.839Z,90.60
2023-01-27T01:48:42.628Z,77.80
2023-01-27T01:51:21.718Z,77.40
2023-01-27T01:54:02.516Z,81.20
2023-01-27T01:56:43.304Z,85.70
2023-01-27T01:59:24.847Z,81.80
2023-01-27T02:02:08.178Z,80.10
2023-01-27T02:04:52.132Z,77.50
2023-01-27T02:07:35.093Z,77.70
2023-01-27T02:10:12.002Z,71.10
2023-01-27T02:12:45.989Z,84.20
2023-01-27T02:15:21.486Z,83.00
2023-01-27T02:17:55.444Z,77.30
2023-01-27T02:20:39.689Z,73.60
2023-01-27T02:23:27.959Z,77.90
2023-01-27T02:26:09.741Z,75.80
2023-01-27T02:28:43.529Z,82.20
2023-01-27T02:31:17.388Z,92.20
2023-01-27T02:33:51.784Z,77.70
2023-01-27T02:36:25.996Z,81.30
2023-01-27T02:39:02.885Z,82.20
2023-01-27T02:41:41.834Z,81.10
2023-01-27T02:44:17.342Z,90.00
2023-01-27T02:46:52.043Z,83.10
2023-01-27T02:49:25.872Z,84.70
2023-01-27T02:51:59.655Z,79.30
2023-01-27T02:54:34.802Z,88.10
2023-01-27T02:57:08.995Z,85.20
2023-01-27T02:59:52.114Z,88.60
2023-01-27T03:02:30.661Z,85.40
2023-01-27T03:05:04.784Z,81.00
2023-01-27T03:07:38.814Z,94.80
2023-01-27T03:10:15.471Z,86.50
2023-01-27T03:12:49.992Z,73.30
2023-01-27T03:15:41.550Z,89.40
2023-01-27T03:18:17.373Z,95.20
2023-01-27T03:20:52.400Z,88.70
2023-01-27T03:23:26.289Z,77.10
2023-01-27T03:26:00.337Z,84.70
2023-01-27T03:28:33.947Z,88.60
2023-01-27T03:31:19.966Z,92.70
2023-01-27T03:34:07.525Z,94.60
2023-01-27T03:37:06.007Z,83.70
2023-01-27T03:39:57.890Z,82.30
2023-01-27T03:42:49.266Z,85.50
2023-01-27T03:45:40.597Z,83.60
2023-01-27T03:48:14.900Z,92.20
2023-01-27T03:50:53.777Z,86.50
2023-01-27T03:53:28.188Z,87.80
2023-01-27T03:56:02.082Z,78.70
2023-01-27T03:58:38.525Z,88.70
2023-01-27T04:01:19.064Z,97.10
2023-01-27T04:04:11.524Z,92.90
2023-01-27T04:07:00.944Z,88.50
2023-01-27T04:09:37.981Z,92.60
2023-01-27T04:12:12.591Z,90.50
2023-01-27T04:14:46.913Z,106.70
2023-01-27T04:17:22.391Z,109.90
2023-01-27T04:19:56.237Z,103.00
2023-01-27T04:22:30.485Z,108.40
2023-01-27T04:25:04.566Z,100.50
2023-01-27T04:27:38.609Z,117.10
2023-01-27T04:30:16.038Z,115.10
2023-01-27T04:32:49.884Z,109.40
2023-01-27T04:35:27.848Z,107.10
2023-01-27T04:38:07.773Z,111.50
2023-01-27T04:40:41.583Z,108.20
2023-01-27T04:43:15.387Z,125.20
2023-01-27T04:45:49.665Z,124.20
2023-01-27T04:48:23.399Z,110.10
2023-01-27T04:50:57.297Z,112.10
2023-01-27T04:53:31.003Z,107.60
2023-01-27T04:56:22.012Z,104.30
2023-01-27T04:58:56.347Z,116.50
2023-01-27T05:01:30.871Z,122.90
2023-01-27T05:04:05.534Z,110.50
2023-01-27T05:06:39.425Z,111.00
2023-01-27T05:09:13.330Z,110.80
2023-01-27T05:11:47.304Z,115.50
2023-01-27T05:14:23.592Z,112.20
2023-01-27T05:16:57.409Z,110.30
2023-01-27T05:19:31.722Z,114.00
2023-01-27T05:22:05.809Z,108.30
2023-01-27T05:24:39.937Z,108.50
2023-01-27T05:27:13.777Z,113.70
2023-01-27T05:29:47.512Z,127.60
2023-01-27T05:32:24.331Z,117.60
2023-01-27T05:34:58.780Z,113.40
2023-01-27T05:37:32.532Z,114.90
2023-01-27T05:40:07.618Z,129.90
2023-01-27T05:42:41.427Z,119.70
2023-01-27T05:45:16.599Z,127.90
2023-01-27T05:47:53.794Z,112.30
2023-01-27T05:50:27.594Z,117.70
2023-01-27T05:53:01.456Z,107.60
2023-01-27T05:55:35.236Z,119.70
2023-01-27T05:58:09.125Z,124.50
2023-01-27T06:00:43.113Z,113.90
2023-01-27T06:03:17.441Z,107.70
2023-01-27T06:06:00.881Z,98.00
2023-01-27T06:08:35.502Z,100.10
2023-01-27T06:11:11.079Z,111.30
2023-01-27T06:13:45.368Z,96.80
2023-01-27T06:16:22.817Z,89.90
2023-01-27T06:18:57.184Z,82.20
2023-01-27T06:21:31.198Z,81.40
2023-01-27T06:24:05.620Z,78.40
2023-01-27T06:26:40.029Z,76.30
2023-01-27T06:29:13.897Z,73.30
2023-01-27T06:31:47.781Z,73.60
2023-01-27T06:34:22.072Z,79.90
2023-01-27T06:36:57.388Z,63.80
2023-01-27T06:39:31.257Z,49.00
2023-01-27T06:42:07.785Z,52.40
2023-01-27T06:44:41.521Z,51.50
2023-01-27T06:47:15.288Z,48.60
2023-01-27T06:49:48.979Z,50.60
2023-01-27T06:52:24.033Z,47.00
2023-01-27T06:54:58.145Z,49.90
2023-01-27T06:57:32.472Z,48.10
2023-01-27T07:00:10.649Z,50.70
2023-01-27T07:02:44.377Z,39.80
2023-01-27T07:05:21.967Z,37.70
2023-01-27T07:07:55.728Z,39.80
2023-01-27T07:10:29.699Z,41.10
2023-01-27T07:13:14.817Z,47.10
2023-01-27T07:15:48.911Z,37.20
2023-01-27T07:18:22.709Z,44.40
2023-01-27T07:20:56.660Z,43.40
2023-01-27T07:23:30.380Z,38.60
2023-01-27T07:26:15.832Z,39.20
2023-01-27T07:29:00.141Z,41.20
2023-01-27T07:31:34.534Z,40.40
2023-01-27T07:34:08.585Z,37.90
2023-01-27T07:36:42.566Z,38.20
2023-01-27T07:39:16.597Z,37.60
2023-01-27T07:41:52.458Z,32.40
2023-01-27T07:44:28.555Z,39.00
2023-01-27T07:47:04.003Z,42.90
2023-01-27T07:49:38.014Z,44.90
2023-01-27T07:52:12.015Z,34.60
2023-01-27T07:54:46.130Z,41.70
2023-01-27T07:57:20.214Z,39.90
2023-01-27T07:59:56.165Z,39.30
2023-01-27T08:02:31.798Z,43.60
2023-01-27T08:05:06.206Z,47.00
2023-01-27T08:07:40.102Z,46.80
2023-01-27T08:10:17.778Z,34.30
2023-01-27T08:12:51.819Z,41.50
2023-01-27T08:15:25.896Z,48.50
2023-01-27T08:18:02.435Z,48.70
2023-01-27T08:20:36.862Z,48.70
2023-01-27T08:23:11.779Z,40.60
2023-01-27T08:25:52.081Z,43.10
2023-01-27T08:28:28.126Z,43.30
2023-01-27T08:31:09.657Z,42.00
2023-01-27T08:33:45.284Z,42.40
2023-01-27T08:36:24.413Z,45.40
2023-01-27T08:38:59.162Z,42.80
2023-01-27T08:41:33.286Z,39.70
2023-01-27T08:44:08.205Z,44.40
2023-01-27T08:46:44.777Z,36.20
2023-01-27T08:49:18.614Z,42.60
2023-01-27T08:51:52.602Z,43.10
2023-01-27T08:54:26.678Z,40.80
2023-01-27T08:57:00.550Z,41.30
2023-01-27T08:59:35.405Z,37.80
2023-01-27T09:02:10.698Z,37.60
2023-01-27T09:04:45.357Z,45.10
2023-01-27T09:07:19.536Z,35.30
2023-01-27T09:10:04.172Z,42.20
2023-01-27T09:12:47.111Z,40.30
2023-01-27T09:15:21.091Z,40.80
2023-01-27T09:17:54.906Z,39.60
2023-01-27T09:20:28.955Z,38.60
2023-01-27T09:23:03.104Z,41.60
2023-01-27T09:25:37.166Z,50.90
2023-01-27T09:28:17.146Z,37.80
2023-01-27T09:30:52.078Z,37.80
2023-01-27T09:33:26.495Z,36.80
2023-01-27T09:36:06.529Z,42.90
2023-01-27T09:38:48.647Z,35.20
2023-01-27T09:41:51.901Z,37.00
2023-01-27T09:45:01.898Z,38.80
2023-01-27T09:48:04.151Z,35.00
2023-01-27T09:50:47.300Z,40.80
2023-01-27T09:54:09.558Z,38.70
2023-01-27T09:57:00.014Z,32.50
2023-01-27T10:00:00.267Z,35.00
2023-01-27T10:03:04.025Z,33.20
2023-01-27T10:06:20.002Z,33.00
2023-01-27T10:09:23.014Z,36.80
2023-01-27T10:12:10.121Z,42.70
2023-01-27T10:14:56.097Z,62.40
2023-01-27T10:34:30.279Z,80.70
2023-01-27T10:37:22.143Z,69.00
2023-01-27T10:40:06.160Z,81.20
2023-01-27T10:42:49.324Z,76.10
2023-01-27T10:45:33.098Z,73.50
2023-01-27T10:48:35.977Z,73.80
2023-01-27T10:51:16.121Z,72.90
2023-01-27T10:53:58.628Z,70.70
2023-01-27T10:56:41.779Z,73.60
2023-01-27T10:59:24.834Z,73.00
2023-01-27T11:02:06.893Z,76.30
2023-01-27T11:04:46.014Z,84.70
2023-01-27T11:07:23.747Z,81.80
2023-01-27T11:10:02.256Z,80.40
2023-01-27T11:12:40.588Z,80.80
2023-01-27T11:15:26.532Z,92.70
2023-01-27T11:18:11.740Z,93.70
2023-01-27T11:20:54.183Z,82.90
2023-01-27T11:23:35.725Z,81.90
2023-01-27T11:26:23.441Z,87.50
2023-01-27T11:29:11.321Z,88.60
2023-01-27T11:31:59.877Z,88.60
2023-01-27T11:34:42.097Z,84.50
2023-01-27T11:37:24.593Z,93.90
2023-01-27T11:39:59.336Z,98.80
2023-01-27T11:42:37.036Z,88.20
2023-01-27T11:45:18.330Z,85.80
2023-01-27T11:47:58.368Z,91.30
2023-01-27T11:50:37.085Z,96.90
2023-01-27T11:53:25.502Z,97.90
2023-01-27T11:56:05.998Z,99.30
2023-01-27T11:58:48.537Z,83.90
2023-01-27T12:01:26.303Z,100.10
2023-01-27T12:04:09.633Z,91.30
2023-01-27T12:06:51.763Z,96.10
2023-01-27T12:09:41.698Z,91.40
2023-01-27T12:12:25.869Z,85.70
2023-01-27T12:15:03.264Z,84.90
2023-01-27T12:17:42.810Z,90.50
2023-01-27T12:20:34.364Z,92.20
2023-01-27T12:23:21.202Z,80.00
2023-01-27T12:25:59.824Z,90.30
2023-01-27T12:28:38.460Z,95.40
2023-01-27T12:31:22.365Z,90.30
2023-01-27T12:34:07.043Z,91.40
2023-01-27T12:36:45.393Z,94.80
2023-01-27T12:39:47.161Z,94.40
2023-01-27T12:42:42.938Z,92.00
2023-01-27T12:45:35.155Z,90.50
2023-01-27T12:48:22.852Z,98.00
2023-01-27T12:51:15.743Z,91.10
2023-01-27T12:53:51.469Z,93.70
2023-01-27T12:56:27.342Z,95.10
2023-01-27T12:59:06.799Z,99.10
2023-01-27T13:01:44.081Z,92.10
2023-01-27T13:04:22.430Z,102.70
2023-01-27T13:07:08.178Z,95.40
2023-01-27T13:09:51.713Z,97.70
2023-01-27T13:12:29.687Z,105.40
2023-01-27T13:15:17.575Z,107.40
2023-01-27T13:17:53.272Z,103.90
2023-01-27T13:20:35.997Z,110.00
2023-01-27T13:23:18.983Z,110.00
2023-01-27T13:26:02.296Z,110.40
2023-01-27T13:28:52.040Z,107.80
2023-01-27T13:31:43.419Z,110.50
2023-01-27T13:34:29.759Z,110.50
2023-01-27T13:37:11.021Z,99.70
2023-01-27T13:40:00.618Z,96.70
2023-01-27T13:42:42.258Z,97.40
2023-01-27T13:45:23.955Z,97.10
2023-01-27T13:48:03.625Z,98.80
2023-01-27T13:50:46.371Z,101.20
2023-01-27T13:53:24.625Z,97.00
2023-01-27T13:56:23.441Z,92.80
2023-01-27T13:59:13.112Z,90.20
2023-01-27T14:02:02.254Z,84.40
2023-01-27T14:04:57.217Z,69.20
2023-01-27T14:07:42.107Z,74.20
2023-01-27T14:10:33.945Z,69.50
2023-01-27T14:13:32.161Z,54.10
2023-01-27T14:16:18.630Z,62.40
2023-01-27T14:19:00.873Z,49.50
2023-01-27T14:21:52.394Z,57.00
2023-01-27T14:24:41.513Z,52.10
2023-01-27T14:27:24.335Z,51.80
2023-01-27T14:30:11.169Z,54.60
2023-01-27T14:32:59.112Z,47.20
2023-01-27T14:35:44.279Z,54.70
2023-01-27T14:38:33.031Z,52.30
2023-01-27T14:41:25.132Z,55.00
2023-01-27T14:44:14.612Z,53.30
2023-01-27T14:47:12.332Z,50.50
2023-01-27T14:50:06.597Z,55.60
2023-01-27T14:52:50.718Z,55.70
2023-01-27T14:55:43.622Z,56.70
2023-01-27T14:58:47.901Z,54.70
2023-01-27T15:01:35.509Z,56.10
2023-01-27T15:04:45.096Z,56.40
2023-01-27T15:07:33.172Z,59.20
2023-01-27T15:10:26.021Z,53.80
2023-01-27T15:13:45.346Z,56.40
2023-01-27T15:16:52.469Z,62.00
2023-01-27T15:19:53.379Z,57.10
2023-01-27T15:22:56.218Z,67.90
2023-01-27T15:25:38.151Z,71.80
2023-01-27T15:28:18.742Z,66.30
2023-01-27T15:31:28.285Z,57.20
2023-01-27T15:34:24.380Z,65.30
2023-01-27T15:37:20.988Z,59.00
2023-01-27T15:40:16.770Z,66.00
2023-01-27T15:43:06.749Z,62.50
2023-01-27T15:45:48.262Z,61.60
2023-01-27T15:48:27.397Z,57.40
2023-01-27T15:51:08.312Z,59.70
2023-01-27T15:53:49.404Z,53.50
2023-01-27T15:56:40.101Z,56.60
2023-01-27T15:59:21.691Z,64.10
2023-01-27T16:02:15.107Z,58.90
2023-01-27T16:04:56.901Z,51.10
2023-01-27T16:07:36.210Z,53.50
2023-01-27T16:10:20.722Z,55.00
2023-01-27T16:13:22.576Z,51.00
2023-01-27T16:16:33.993Z,53.90
2023-01-27T16:19:26.267Z,50.20
2023-01-27T16:22:05.172Z,53.60
2023-01-27T16:24:47.323Z,44.20
2023-01-27T16:27:39.328Z,53.60
2023-01-27T16:30:22.099Z,58.70
2023-01-27T16:33:06.397Z,55.00
2023-01-27T16:35:49.014Z,50.30
2023-01-27T16:38:30.400Z,46.80
2023-01-27T16:41:11.010Z,51.30
2023-01-27T16:43:53.027Z,54.00
2023-01-27T16:46:36.885Z,55.90
2023-01-27T16:49:20.583Z,54.20
2023-01-27T16:52:01.034Z,49.10
2023-01-27T16:54:39.392Z,50.10
2023-01-27T16:57:43.742Z,49.40
2023-01-27T17:00:27.021Z,54.30
2023-01-27T17:03:09.972Z,51.10
2023-01-27T17:05:52.006Z,50.00
2023-01-27T17:08:35.462Z,47.80
2023-01-27T17:11:25.387Z,46.20
2023-01-27T17:14:04.538Z,50.10
2023-01-27T17:16:43.053Z,45.20
2023-01-27T17:19:24.216Z,49.30
2023-01-27T17:22:02.006Z,47.40
2023-01-27T17:24:40.819Z,46.30
2023-01-27T17:27:27.659Z,44.60
2023-01-27T17:30:22.792Z,49.90
2023-01-27T17:33:01.789Z,44.00
2023-01-27T17:35:39.458Z,47.10
2023-01-27T17:38:20.035Z,44.20
2023-01-27T17:40:57.313Z,44.90
2023-01-27T17:43:37.136Z,45.20
2023-01-27T17:46:19.545Z,48.60
2023-01-27T17:48:57.655Z,52.80
2023-01-27T17:51:40.588Z,47.40
2023-01-27T17:54:27.085Z,52.10
2023-01-27T17:57:09.386Z,49.40
2023-01-27T17:59:47.684Z,54.50
2023-01-27T18:02:29.037Z,55.60
2023-01-27T18:05:07.216Z,52.20
2023-01-27T18:07:40.920Z,53.40
2023-01-27T18:10:37.101Z,56.80
2023-01-27T18:13:38.726Z,58.70
2023-01-27T18:16:22.557Z,53.80
2023-01-27T18:19:09.303Z,54.20
2023-01-27T18:21:43.611Z,52.30
2023-01-27T18:24:24.782Z,48.70
2023-01-27T18:26:58.744Z,53.80
2023-01-27T18:29:40.197Z,51.20
2023-01-27T18:32:23.808Z,48.20
2023-01-27T18:35:00.583Z,46.80
2023-01-27T18:37:37.655Z,50.00
2023-01-27T18:40:31.459Z,51.20
2023-01-27T18:43:07.293Z,54.40
2023-01-27T18:45:42.290Z,50.20
2023-01-27T18:48:19.062Z,47.40
2023-01-27T18:50:52.923Z,47.30
2023-01-27T18:53:26.896Z,49.70
2023-01-27T18:56:02.197Z,57.50
2023-01-27T18:58:36.210Z,48.60
2023-01-27T19:01:19.597Z,47.70
2023-01-27T19:03:57.375Z,49.40
2023-01-27T19:06:31.573Z,45.60
2023-01-27T19:09:05.901Z,55.90
2023-01-27T19:11:40.151Z,47.00
2023-01-27T19:14:14.100Z,46.70
2023-01-27T19:16:47.924Z,46.30
2023-01-27T19:19:21.842Z,46.10
2023-01-27T19:21:55.629Z,51.20
2023-01-27T19:24:29.709Z,50.30
2023-01-27T19:27:04.379Z,52.30
2023-01-27T19:29:38.443Z,46.20
2023-01-27T19:32:16.221Z,44.80
2023-01-27T19:34:52.703Z,48.00
2023-01-27T19:37:27.023Z,44.00
2023-01-27T19:40:02.306Z,49.90
2023-01-27T19:42:36.562Z,49.70
2023-01-27T19:45:12.791Z,48.70
2023-01-27T19:47:49.186Z,51.50
2023-01-27T19:50:30.336Z,48.10
2023-01-27T19:53:04.864Z,52.10
2023-01-27T19:55:39.343Z,51.80
2023-01-27T19:58:23.682Z,49.90
2023-01-27T20:00:59.281Z,53.90
2023-01-27T20:03:33.516Z,50.10
2023-01-27T20:06:16.233Z,53.00
2023-01-27T20:08:52.261Z,50.70
2023-01-27T20:11:37.461Z,51.60
2023-01-27T20:14:15.352Z,47.60
2023-01-27T20:16:49.982Z,44.20
2023-01-27T20:19:24.145Z,51.70
2023-01-27T20:22:01.163Z,53.40
2023-01-27T20:24:36.449Z,50.10
2023-01-27T20:27:11.034Z,43.20
2023-01-27T20:29:46.749Z,47.00
2023-01-27T20:32:24.260Z,45.10
2023-01-27T20:34:59.509Z,45.90
2023-01-27T20:37:34.527Z,46.80
2023-01-27T20:40:13.358Z,47.60
2023-01-27T20:42:48.088Z,40.30
2023-01-27T20:45:23.691Z,42.60
2023-01-27T20:47:58.917Z,41.50
2023-01-27T20:50:33.390Z,47.70
2023-01-27T20:53:08.946Z,47.10
2023-01-27T20:55:43.383Z,50.80
2023-01-27T20:58:17.821Z,44.30
2023-01-27T21:00:52.007Z,47.30
2023-01-27T21:03:26.083Z,44.80
2023-01-27T21:06:00.296Z,46.20
2023-01-27T21:08:34.665Z,52.40
2023-01-27T21:11:13.427Z,51.30
2023-01-27T21:13:48.264Z,49.10
2023-01-27T21:16:22.857Z,45.80
2023-01-27T21:18:57.002Z,45.30
2023-01-27T21:21:32.696Z,40.10
2023-01-27T21:24:07.764Z,47.50
2023-01-27T21:26:42.266Z,46.90
2023-01-27T21:29:17.099Z,45.10
2023-01-27T21:31:51.244Z,42.10
2023-01-27T21:34:25.945Z,45.90
2023-01-27T21:37:00.131Z,44.60
2023-01-27T21:39:34.161Z,47.90
2023-01-27T21:42:27.488Z,49.60
2023-01-27T21:45:15.334Z,46.20
2023-01-27T21:47:49.771Z,46.90
2023-01-27T21:50:24.894Z,43.00
2023-01-27T21:52:58.833Z,43.30
2023-01-27T21:55:34.157Z,45.60
2023-01-27T21:58:08.012Z,46.00
2023-01-27T22:00:42.140Z,44.80
2023-01-27T22:03:16.207Z,42.20
2023-01-27T22:05:50.054Z,41.50
2023-01-27T22:08:23.835Z,44.00
2023-01-27T22:10:57.728Z,45.40
2023-01-27T22:13:31.751Z,40.60
2023-01-27T22:16:07.588Z,39.40
2023-01-27T22:18:41.744Z,39.10
2023-01-27T22:21:15.867Z,42.60
2023-01-27T22:23:49.658Z,49.30
2023-01-27T22:26:23.339Z,45.90
2023-01-27T22:28:57.281Z,40.80
2023-01-27T22:31:31.244Z,38.40
2023-01-27T22:34:05.032Z,40.00
2023-01-27T22:36:39.089Z,43.30
2023-01-27T22:39:13.212Z,43.00
2023-01-27T22:41:47.396Z,39.30
2023-01-27T22:44:21.740Z,40.30
2023-01-27T22:46:55.593Z,42.70
2023-01-27T22:49:29.745Z,38.50
2023-01-27T22:52:03.568Z,43.60
2023-01-27T22:54:37.981Z,36.30
2023-01-27T22:57:11.843Z,44.10
2023-01-27T22:59:45.529Z,42.50
2023-01-27T23:02:21.188Z,42.40
2023-01-27T23:16:00.021Z,41.90
2023-01-27T23:18:34.078Z,39.40
2023-01-27T23:21:09.910Z,40.20
2023-01-27T23:23:43.640Z,35.70
2023-01-27T23:26:18.204Z,39.10
2023-01-27T23:28:51.867Z,38.40
2023-01-27T23:31:25.842Z,40.70
2023-01-27T23:34:00.033Z,37.10
2023-01-27T23:36:33.807Z,37.70
2023-01-27T23:39:07.766Z,32.90
2023-01-27T23:41:41.897Z,37.00
2023-01-27T23:44:17.255Z,37.80
2023-01-27T23:46:51.048Z,31.30
2023-01-27T23:49:24.844Z,33.90
2023-01-27T23:51:58.547Z,36.90
2023-01-27T23:54:32.774Z,36.00
2023-01-27T23:57:06.982Z,35.60
2023-01-27T23:59:41.357Z,36.10
